Time;durP1;ratioP1;P1;durP2;ratioP2;P2;SDS_P1;SDS_P2;PMS_P1;PMS_P2;Temp;Humidity;BMP_temperature;BMP_pressure;BME280_temperature;BME280_humidity;BME280_pressure;Samples;Min_cycle;Max_cycle;Signal;HPM_P1;HPM_P2
2022/04/07 00:00:04;;;;;;;0.03;0.03;;;8.90;99.90;;;;;;5072819;28;20038;-82
2022/04/07 00:02:30;;;;;;;0.10;0.10;;;8.90;99.90;;;;;;5073312;28;20044;-80
2022/04/07 00:04:57;;;;;;;0.10;0.10;;;9.00;99.90;;;;;;5073081;28;20046;-81
2022/04/07 00:07:24;;;;;;;0.00;0.00;;;8.90;99.90;;;;;;5056634;28;20040;-82
2022/04/07 00:09:51;;;;;;;0.08;0.08;;;9.00;99.90;;;;;;5056022;28;20044;-81
2022/04/07 00:12:17;;;;;;;0.03;0.03;;;8.90;99.90;;;;;;5073148;28;20041;-83
2022/04/07 00:14:44;;;;;;;0.10;0.10;;;8.90;99.90;;;;;;5072539;28;20509;-81
2022/04/07 00:17:11;;;;;;;0.10;0.10;;;9.00;99.90;;;;;;5073420;28;20036;-80
2022/04/07 00:19:38;;;;;;;0.20;0.20;;;9.00;99.90;;;;;;5056621;28;20071;-80
2022/04/07 00:22:04;;;;;;;0.10;0.10;;;9.00;99.90;;;;;;5055989;28;20534;-80
2022/04/07 00:24:31;;;;;;;0.00;0.00;;;9.00;99.90;;;;;;5056667;28;20051;-80
2022/04/07 00:26:58;;;;;;;0.10;0.10;;;9.00;99.90;;;;;;5055837;28;20528;-83
2022/04/07 00:29:24;;;;;;;0.00;0.00;;;9.00;99.90;;;;;;5056488;28;20053;-80
2022/04/07 00:31:56;;;;;;;0.00;0.00;;;9.00;99.90;;;;;;5056245;28;20433;-80
2022/04/07 00:34:23;;;;;;;0.10;0.10;;;9.00;99.90;;;;;;5058134;28;20045;-80
2022/04/07 00:36:50;;;;;;;0.00;0.00;;;9.00;99.90;;;;;;5056209;28;20044;-81
2022/04/07 00:39:17;;;;;;;0.10;0.10;;;9.00;99.90;;;;;;5072868;28;20032;-82
2022/04/07 00:41:45;;;;;;;0.10;0.10;;;9.00;99.90;;;;;;5056421;28;20101;-80
2022/04/07 00:44:12;;;;;;;0.00;0.00;;;8.80;99.90;;;;;;5056854;28;20144;-80
2022/04/07 00:46:40;;;;;;;0.10;0.10;;;8.80;99.90;;;;;;5073132;28;20153;-83
2022/04/07 00:49:08;;;;;;;0.05;0.05;;;8.70;99.90;;;;;;5055861;28;20448;-83
2022/04/07 00:51:38;;;;;;;0.00;0.00;;;8.70;99.90;;;;;;5072523;28;20128;-81
2022/04/07 00:54:07;;;;;;;0.20;0.10;;;8.70;99.90;;;;;;5072127;28;20044;-82
2022/04/07 00:56:35;;;;;;;0.10;0.10;;;8.60;99.90;;;;;;5055911;28;20131;-80
2022/04/07 00:59:06;;;;;;;0.00;0.00;;;8.80;99.90;;;;;;5072218;28;20036;-82
2022/04/07 01:01:33;;;;;;;0.00;0.00;;;8.60;99.90;;;;;;5056550;28;20037;-81
2022/04/07 01:04:00;;;;;;;0.10;0.10;;;8.60;99.90;;;;;;5072302;28;20044;-82
2022/04/07 01:06:27;;;;;;;0.00;0.00;;;8.60;99.90;;;;;;5072564;28;20040;-81
2022/04/07 01:08:55;;;;;;;0.10;0.10;;;8.60;99.90;;;;;;5055946;28;20044;-83
2022/04/07 01:11:25;;;;;;;0.10;0.10;;;8.60;99.90;;;;;;5056560;28;20512;-82
2022/04/07 01:13:52;;;;;;;0.00;0.00;;;8.60;99.90;;;;;;5072319;28;20036;-82
2022/04/07 01:16:25;;;;;;;0.00;0.00;;;8.60;99.90;;;;;;5056208;28;20041;-82
2022/04/07 01:18:51;;;;;;;0.00;0.00;;;8.50;99.90;;;;;;5072133;28;20040;-83
2022/04/07 01:21:18;;;;;;;0.00;0.00;;;8.60;99.90;;;;;;5058645;28;20089;-81
2022/04/07 01:24:09;;;;;;;0.10;0.10;;;8.60;99.90;;;;;;5059523;28;20037;-81
2022/04/07 01:26:39;;;;;;;0.00;0.00;;;8.50;99.90;;;;;;5064846;28;20057;-82
2022/04/07 01:29:08;;;;;;;0.00;0.00;;;8.50;99.90;;;;;;5052750;28;20037;-80
2022/04/07 01:31:35;;;;;;;0.10;0.10;;;8.50;99.90;;;;;;5052625;28;20041;-82
2022/04/07 01:34:05;;;;;;;0.10;0.10;;;8.50;99.90;;;;;;5052689;28;20091;-81
2022/04/07 01:36:35;;;;;;;0.03;0.03;;;8.50;99.90;;;;;;5089323;28;20035;-81
2022/04/07 01:39:03;;;;;;;0.08;0.08;;;8.50;99.90;;;;;;5088759;28;20044;-81
2022/04/07 01:41:31;;;;;;;0.05;0.05;;;8.50;99.90;;;;;;5072172;28;20437;-82
2022/04/07 01:43:58;;;;;;;0.10;0.10;;;8.40;99.90;;;;;;5039717;28;20041;-81
2022/04/07 01:46:26;;;;;;;0.00;0.00;;;8.40;99.90;;;;;;5089206;28;20090;-82
2022/04/07 01:48:55;;;;;;;0.10;0.10;;;8.40;99.90;;;;;;5072589;28;20041;-82
2022/04/07 01:51:24;;;;;;;0.10;0.10;;;8.40;99.90;;;;;;5072083;28;20040;-83
2022/04/07 01:53:51;;;;;;;0.05;0.05;;;8.40;99.90;;;;;;5072341;28;20485;-81
2022/04/07 01:56:19;;;;;;;0.00;0.00;;;8.40;99.90;;;;;;5071764;28;20040;-83
2022/04/07 01:58:47;;;;;;;0.10;0.10;;;8.40;99.90;;;;;;5071877;28;20045;-81
2022/04/07 02:01:17;;;;;;;0.10;0.10;;;8.40;99.90;;;;;;5088343;28;20072;-83
2022/04/07 02:03:45;;;;;;;0.03;0.03;;;8.40;99.90;;;;;;5071675;28;20081;-82
2022/04/07 02:06:17;;;;;;;0.10;0.10;;;8.40;99.90;;;;;;5039399;28;20048;-81
2022/04/07 02:08:44;;;;;;;0.10;0.10;;;8.40;99.90;;;;;;5088283;28;20080;-82
2022/04/07 02:11:12;;;;;;;0.10;0.10;;;8.40;99.90;;;;;;5088296;28;20045;-82
2022/04/07 02:13:39;;;;;;;0.10;0.10;;;8.40;99.90;;;;;;5055086;28;20387;-81
2022/04/07 02:16:07;;;;;;;0.00;0.00;;;8.40;99.90;;;;;;5088280;28;20072;-80
2022/04/07 02:18:35;;;;;;;0.10;0.10;;;8.50;99.90;;;;;;5088237;28;20041;-80
2022/04/07 02:21:03;;;;;;;0.10;0.10;;;8.50;99.90;;;;;;5087709;28;20075;-80
2022/04/07 02:23:30;;;;;;;0.00;0.00;;;8.50;99.90;;;;;;5088151;28;20048;-83
2022/04/07 02:25:57;;;;;;;0.00;0.00;;;8.50;99.90;;;;;;5075468;28;20208;-81
2022/04/07 02:28:23;;;;;;;0.00;0.00;;;8.60;99.90;;;;;;5078639;28;20570;-80
2022/04/07 02:30:50;;;;;;;0.00;0.00;;;8.60;99.90;;;;;;5078453;28;20062;-81
2022/04/07 02:33:17;;;;;;;0.00;0.00;;;8.60;99.90;;;;;;5077296;28;20237;-81
2022/04/07 02:35:44;;;;;;;0.10;0.10;;;8.60;99.90;;;;;;5095223;28;20056;-81
2022/04/07 02:38:11;;;;;;;0.00;0.00;;;8.60;99.90;;;;;;5094622;28;20032;-82
2022/04/07 02:40:37;;;;;;;0.00;0.00;;;8.40;99.90;;;;;;5078509;28;20110;-80
2022/04/07 02:43:04;;;;;;;0.10;0.10;;;8.30;99.90;;;;;;5078038;28;20471;-82
2022/04/07 02:45:31;;;;;;;0.08;0.08;;;8.20;99.90;;;;;;5078094;28;20400;-80
2022/04/07 02:47:58;;;;;;;0.10;0.10;;;8.20;99.90;;;;;;5094334;28;20481;-81
2022/04/07 02:50:24;;;;;;;0.10;0.10;;;8.20;99.90;;;;;;5094257;28;20117;-81
2022/04/07 02:52:51;;;;;;;0.10;0.10;;;8.10;99.90;;;;;;5078015;28;20127;-80
2022/04/07 02:55:18;;;;;;;0.00;0.00;;;8.10;99.90;;;;;;5077478;28;20451;-83
2022/04/07 02:57:45;;;;;;;0.10;0.10;;;8.20;99.90;;;;;;5077902;28;20039;-83
2022/04/07 03:00:12;;;;;;;0.00;0.00;;;8.20;99.90;;;;;;5094263;28;20516;-83
2022/04/07 03:02:39;;;;;;;0.10;0.10;;;8.30;99.90;;;;;;5094694;28;20044;-83
2022/04/07 03:05:06;;;;;;;0.10;0.10;;;8.20;99.90;;;;;;5094399;28;20378;-81
2022/04/07 03:07:35;;;;;;;0.10;0.10;;;8.20;99.90;;;;;;5094127;28;20642;-83
2022/04/07 03:10:02;;;;;;;0.10;0.10;;;8.20;99.90;;;;;;5110781;28;20039;-82
2022/04/07 03:12:29;;;;;;;0.00;0.00;;;8.20;99.90;;;;;;5094094;28;20043;-81
2022/04/07 03:14:56;;;;;;;0.10;0.10;;;8.20;99.90;;;;;;5077784;28;20032;-83
2022/04/07 03:17:24;;;;;;;0.08;0.08;;;8.20;99.90;;;;;;5093614;28;20120;-83
2022/04/07 03:19:51;;;;;;;0.00;0.00;;;8.20;99.90;;;;;;5077639;28;20028;-83
2022/04/07 03:22:19;;;;;;;0.10;0.10;;;8.30;99.90;;;;;;5094085;28;20036;-81
2022/04/07 03:24:46;;;;;;;0.00;0.00;;;8.30;99.90;;;;;;5077841;28;20040;-84
2022/04/07 03:27:13;;;;;;;0.10;0.10;;;8.40;99.90;;;;;;5092980;28;20056;-81
2022/04/07 03:29:40;;;;;;;0.00;0.00;;;8.30;99.90;;;;;;5077359;28;20046;-81
2022/04/07 03:32:07;;;;;;;1.65;0.60;;;8.30;99.90;;;;;;5110030;28;20094;-81
2022/04/07 03:34:34;;;;;;;0.10;0.10;;;8.30;99.90;;;;;;5077351;28;20497;-83
2022/04/07 03:37:01;;;;;;;0.00;0.00;;;8.30;99.90;;;;;;5093879;28;20039;-81
2022/04/07 03:39:27;;;;;;;0.10;0.10;;;8.30;99.90;;;;;;5110025;28;20043;-83
2022/04/07 03:41:54;;;;;;;0.10;0.10;;;8.30;99.90;;;;;;5093767;28;20100;-81
2022/04/07 03:44:21;;;;;;;0.10;0.10;;;8.30;99.90;;;;;;5092851;28;20047;-80
2022/04/07 03:46:48;;;;;;;0.10;0.10;;;8.30;99.90;;;;;;5093586;28;20536;-83
2022/04/07 03:49:14;;;;;;;0.08;0.08;;;8.20;99.90;;;;;;5076832;28;20101;-80
2022/04/07 03:51:41;;;;;;;0.03;0.03;;;8.20;99.90;;;;;;5093746;28;20043;-80
2022/04/07 03:54:08;;;;;;;0.10;0.10;;;8.20;99.90;;;;;;5093143;28;20400;-82
2022/04/07 03:56:35;;;;;;;0.10;0.10;;;8.20;99.90;;;;;;5110252;28;20040;-81
2022/04/07 03:59:02;;;;;;;0.10;0.10;;;8.30;99.90;;;;;;5093373;28;20396;-83
2022/04/07 04:01:29;;;;;;;0.00;0.00;;;8.20;99.90;;;;;;5093212;28;20127;-80
2022/04/07 04:03:56;;;;;;;0.10;0.10;;;8.20;99.90;;;;;;5093543;28;20036;-81
2022/04/07 04:06:23;;;;;;;0.10;0.10;;;8.20;99.90;;;;;;5076239;28;20515;-83
2022/04/07 04:08:49;;;;;;;0.00;0.00;;;8.20;99.90;;;;;;5093201;28;20038;-80
2022/04/07 04:11:16;;;;;;;0.10;0.10;;;8.20;99.90;;;;;;5093118;28;20040;-81
2022/04/07 04:13:43;;;;;;;0.10;0.10;;;8.30;99.90;;;;;;5093031;28;20086;-83
2022/04/07 04:16:10;;;;;;;0.00;0.00;;;8.30;99.90;;;;;;5076217;28;20048;-83
2022/04/07 04:18:36;;;;;;;0.00;0.00;;;8.20;99.90;;;;;;5077171;28;20505;-83
2022/04/07 04:21:03;;;;;;;0.03;0.03;;;8.30;99.90;;;;;;5093392;28;20477;-81
2022/04/07 04:23:30;;;;;;;0.00;0.00;;;8.20;99.90;;;;;;5092734;28;20047;-81
2022/04/07 04:25:56;;;;;;;0.00;0.00;;;8.20;99.90;;;;;;5076529;28;20040;-81
2022/04/07 04:28:23;;;;;;;0.00;0.00;;;8.20;99.90;;;;;;5076629;28;20048;-84
2022/04/07 04:30:50;;;;;;;0.10;0.10;;;8.20;99.90;;;;;;5076701;28;20039;-83
2022/04/07 04:33:17;;;;;;;0.10;0.10;;;8.20;99.90;;;;;;5092856;28;20044;-83
2022/04/07 04:35:44;;;;;;;0.00;0.00;;;8.30;99.90;;;;;;5076685;28;20040;-84
2022/04/07 04:38:11;;;;;;;0.10;0.10;;;8.30;99.90;;;;;;5076717;28;20067;-81
2022/04/07 04:40:37;;;;;;;0.00;0.00;;;8.30;99.90;;;;;;5092590;28;20090;-81
2022/04/07 04:43:04;;;;;;;0.10;0.10;;;8.30;99.90;;;;;;5076394;28;20047;-83
2022/04/07 04:45:31;;;;;;;0.10;0.10;;;8.30;99.90;;;;;;5075790;28;20058;-81
2022/04/07 04:47:58;;;;;;;0.00;0.00;;;8.20;99.90;;;;;;5076036;28;20456;-80
2022/04/07 04:50:26;;;;;;;0.10;0.10;;;8.20;99.90;;;;;;5059380;28;20047;-81
2022/04/07 04:52:52;;;;;;;0.00;0.00;;;8.20;99.90;;;;;;5076482;28;20048;-81
2022/04/07 04:55:19;;;;;;;0.10;0.10;;;8.20;99.90;;;;;;5076454;28;20044;-83
2022/04/07 04:57:46;;;;;;;0.00;0.00;;;8.20;99.90;;;;;;5096198;28;20040;-82
2022/04/07 05:00:13;;;;;;;0.05;0.05;;;8.20;99.90;;;;;;5079496;28;20040;-83
2022/04/07 05:02:40;;;;;;;0.00;0.00;;;8.20;99.90;;;;;;5095935;28;20044;-83
2022/04/07 05:05:07;;;;;;;0.10;0.10;;;8.20;99.90;;;;;;5096037;28;20054;-80
2022/04/07 05:07:34;;;;;;;0.10;0.10;;;8.20;99.90;;;;;;5112497;28;20393;-83
2022/04/07 05:10:06;;;;;;;0.00;0.00;;;8.20;99.90;;;;;;5112827;28;20131;-83
2022/04/07 05:12:35;;;;;;;0.00;0.00;;;8.20;99.90;;;;;;5112313;28;20040;-80
2022/04/07 05:15:03;;;;;;;0.00;0.00;;;8.20;99.90;;;;;;5096334;28;20044;-83
2022/04/07 05:17:29;;;;;;;0.10;0.10;;;8.20;99.90;;;;;;5095627;28;20043;-80
2022/04/07 05:19:56;;;;;;;0.10;0.10;;;8.20;99.90;;;;;;5096281;28;20040;-80
2022/04/07 05:22:23;;;;;;;0.00;0.00;;;8.10;99.90;;;;;;5079013;28;20420;-83
2022/04/07 05:24:50;;;;;;;0.10;0.10;;;8.10;99.90;;;;;;5096358;28;20052;-80
2022/04/07 05:27:17;;;;;;;0.10;0.10;;;8.00;99.90;;;;;;5072080;28;20053;-80
2022/04/07 05:29:44;;;;;;;0.10;0.10;;;7.90;99.90;;;;;;5070355;28;20044;-83
2022/04/07 05:32:11;;;;;;;0.00;0.00;;;7.80;99.90;;;;;;5064171;28;20037;-80
2022/04/07 05:34:38;;;;;;;0.10;0.10;;;7.80;99.90;;;;;;5052040;28;20033;-80
2022/04/07 05:37:04;;;;;;;0.00;0.00;;;7.70;99.90;;;;;;5040743;28;20037;-83
2022/04/07 05:39:31;;;;;;;0.10;0.10;;;7.70;99.90;;;;;;5047981;28;20040;-83
2022/04/07 05:41:58;;;;;;;0.00;0.00;;;7.70;99.90;;;;;;5069371;28;20041;-83
2022/04/07 05:44:25;;;;;;;0.10;0.10;;;7.70;99.90;;;;;;5060603;28;20052;-80
2022/04/07 05:46:51;;;;;;;0.00;0.00;;;7.70;99.90;;;;;;5056133;28;20073;-83
2022/04/07 05:49:18;;;;;;;0.10;0.10;;;7.70;99.90;;;;;;5051729;28;20148;-83
2022/04/07 05:51:47;;;;;;;0.10;0.10;;;7.70;99.90;;;;;;5035005;28;20037;-79
2022/04/07 05:54:16;;;;;;;0.10;0.10;;;8.10;99.90;;;;;;5051723;28;20041;-82
2022/04/07 05:56:43;;;;;;;0.10;0.10;;;7.80;99.90;;;;;;5035101;28;20522;-82
2022/04/07 05:59:12;;;;;;;0.03;0.03;;;7.60;99.90;;;;;;5035809;28;20099;-82
2022/04/07 06:01:39;;;;;;;0.32;0.22;;;7.50;99.90;;;;;;5069080;28;20497;-82
2022/04/07 06:04:06;;;;;;;0.00;0.00;;;7.50;99.90;;;;;;5054654;28;20051;-82
2022/04/07 06:06:32;;;;;;;0.10;0.10;;;7.50;99.90;;;;;;5050083;28;20124;-82
2022/04/07 06:08:59;;;;;;;0.10;0.10;;;7.00;99.90;;;;;;5035677;28;20040;-81
2022/04/07 06:11:26;;;;;;;0.10;0.10;;;6.50;99.90;;;;;;5032612;28;20021;-84
2022/04/07 06:13:52;;;;;;;0.10;0.10;;;6.30;99.90;;;;;;5071757;28;20440;-81
2022/04/07 06:16:19;;;;;;;0.10;0.10;;;6.10;99.90;;;;;;5052091;28;20483;-81
2022/04/07 06:18:46;;;;;;;0.10;0.10;;;6.10;99.90;;;;;;5067822;28;20053;-84
2022/04/07 06:21:13;;;;;;;0.10;0.10;;;6.00;99.90;;;;;;5051965;28;20034;-81
2022/04/07 06:23:40;;;;;;;0.10;0.10;;;5.90;99.90;;;;;;5051546;28;20490;-85
2022/04/07 06:26:07;;;;;;;0.10;0.10;;;5.90;99.90;;;;;;5051301;28;20045;-84
2022/04/07 06:28:34;;;;;;;0.10;0.10;;;5.90;99.90;;;;;;5057706;28;20131;-81
2022/04/07 06:31:00;;;;;;;0.10;0.10;;;5.90;99.90;;;;;;5082708;28;20412;-82
2022/04/07 06:33:27;;;;;;;0.10;0.10;;;5.90;99.90;;;;;;5077570;28;20043;-82
2022/04/07 06:35:54;;;;;;;0.10;0.10;;;5.80;99.90;;;;;;5077632;28;20044;-81
2022/04/07 06:38:20;;;;;;;0.10;0.10;;;5.80;99.90;;;;;;5107525;28;20036;-81
2022/04/07 06:40:47;;;;;;;0.10;0.10;;;5.80;99.90;;;;;;5088374;28;20097;-81
2022/04/07 06:43:14;;;;;;;0.10;0.10;;;5.70;99.90;;;;;;5111098;28;20044;-84
2022/04/07 06:45:40;;;;;;;0.10;0.10;;;5.70;99.90;;;;;;5060992;28;20046;-83
2022/04/07 06:48:08;;;;;;;0.10;0.10;;;5.70;99.90;;;;;;5061215;28;20043;-83
2022/04/07 06:50:34;;;;;;;0.10;0.10;;;5.60;99.90;;;;;;5077632;28;20054;-84
2022/04/07 06:53:01;;;;;;;0.10;0.10;;;5.60;99.90;;;;;;5077397;28;20568;-85
2022/04/07 06:55:28;;;;;;;0.10;0.10;;;5.60;99.90;;;;;;5060907;28;20035;-85
2022/04/07 06:58:02;;;;;;;0.10;0.10;;;5.60;99.90;;;;;;5094435;28;20040;-82
2022/04/07 07:00:31;;;;;;;0.10;0.10;;;5.60;99.90;;;;;;5093908;28;20408;-84
2022/04/07 07:03:00;;;;;;;0.10;0.10;;;5.50;99.90;;;;;;5077823;28;20138;-82
2022/04/07 07:05:29;;;;;;;0.10;0.10;;;5.80;99.90;;;;;;5095855;28;20040;-85
2022/04/07 07:07:56;;;;;;;0.10;0.10;;;5.30;99.90;;;;;;5109532;28;20104;-82
2022/04/07 07:10:28;;;;;;;0.10;0.10;;;5.60;99.90;;;;;;5059886;28;20136;-82
2022/04/07 07:12:55;;;;;;;0.10;0.10;;;5.50;99.90;;;;;;5081859;28;20044;-85
2022/04/07 07:15:21;;;;;;;0.10;0.10;;;5.50;99.90;;;;;;5117877;28;20033;-82
2022/04/07 07:17:48;;;;;;;0.10;0.10;;;5.80;99.90;;;;;;5059081;28;20173;-84
2022/04/07 07:20:15;;;;;;;0.10;0.10;;;5.40;99.90;;;;;;5093648;28;20505;-83
2022/04/07 07:22:42;;;;;;;0.10;0.10;;;5.40;99.90;;;;;;5092581;28;20094;-82
2022/04/07 07:25:10;;;;;;;0.10;0.10;;;5.40;99.90;;;;;;5075789;28;20051;-85
2022/04/07 07:27:41;;;;;;;0.10;0.10;;;5.40;99.90;;;;;;5092613;28;20056;-83
2022/04/07 07:30:10;;;;;;;0.10;0.10;;;5.50;99.90;;;;;;5096908;28;20408;-82
2022/04/07 07:32:38;;;;;;;0.10;0.10;;;5.50;99.90;;;;;;5076035;28;20043;-83
2022/04/07 07:35:06;;;;;;;0.17;0.17;;;5.50;99.90;;;;;;5093193;28;20063;-83
2022/04/07 07:37:33;;;;;;;0.10;0.10;;;5.60;99.90;;;;;;5092960;28;20040;-84
2022/04/07 07:40:05;;;;;;;0.10;0.10;;;5.60;99.90;;;;;;5092541;28;20040;-82
2022/04/07 07:42:32;;;;;;;0.10;0.10;;;5.60;99.90;;;;;;5100311;28;20047;-83
2022/04/07 07:44:58;;;;;;;0.10;0.10;;;5.60;99.90;;;;;;5053272;28;20048;-82
2022/04/07 07:47:25;;;;;;;0.10;0.10;;;5.70;99.90;;;;;;5056922;28;20050;-84
2022/04/07 07:49:52;;;;;;;0.10;0.10;;;5.70;99.90;;;;;;5059536;28;20097;-84
2022/04/07 07:52:18;;;;;;;0.10;0.10;;;5.70;99.90;;;;;;5092742;28;20586;-82
2022/04/07 07:54:45;;;;;;;0.10;0.10;;;5.70;99.90;;;;;;5075372;28;20093;-83
2022/04/07 07:57:12;;;;;;;0.10;0.10;;;5.60;99.90;;;;;;5075888;28;20058;-84
2022/04/07 07:59:38;;;;;;;0.10;0.10;;;6.50;99.90;;;;;;5058639;28;20048;-83
2022/04/07 08:02:06;;;;;;;0.10;0.10;;;5.60;99.90;;;;;;5059685;28;20040;-82
2022/04/07 08:04:32;;;;;;;0.10;0.10;;;5.60;99.90;;;;;;5109012;28;20050;-83
2022/04/07 08:06:59;;;;;;;0.10;0.10;;;5.70;99.90;;;;;;5059673;28;20158;-82
2022/04/07 08:09:26;;;;;;;0.10;0.10;;;5.70;99.90;;;;;;5076085;28;20082;-82
2022/04/07 08:11:53;;;;;;;0.10;0.10;;;5.70;99.90;;;;;;5091465;28;20044;-83
2022/04/07 08:14:19;;;;;;;0.10;0.10;;;5.70;99.90;;;;;;5059470;28;20043;-85
2022/04/07 08:16:46;;;;;;;0.10;0.10;;;5.70;99.90;;;;;;5076099;28;20043;-83
2022/04/07 08:19:13;;;;;;;0.10;0.10;;;5.70;99.90;;;;;;5075969;28;20516;-83
2022/04/07 08:21:39;;;;;;;0.10;0.10;;;5.80;99.90;;;;;;5075917;28;20044;-83
2022/04/07 08:24:06;;;;;;;0.10;0.10;;;5.80;99.90;;;;;;5075963;28;20390;-83
2022/04/07 08:26:34;;;;;;;0.10;0.10;;;5.90;99.90;;;;;;5075348;28;20076;-84
2022/04/07 08:29:00;;;;;;;0.10;0.10;;;5.90;99.90;;;;;;5075642;28;20040;-84
2022/04/07 08:31:27;;;;;;;0.10;0.10;;;6.30;99.90;;;;;;5075284;28;20485;-83
2022/04/07 08:33:54;;;;;;;0.10;0.10;;;5.90;99.90;;;;;;5059025;28;20036;-83
2022/04/07 08:36:21;;;;;;;0.10;0.10;;;6.00;99.90;;;;;;5092463;28;20093;-83
2022/04/07 08:38:47;;;;;;;0.10;0.10;;;5.90;99.90;;;;;;5091928;28;20028;-83
2022/04/07 08:41:14;;;;;;;0.10;0.10;;;5.90;99.90;;;;;;5075916;28;20039;-84
2022/04/07 08:43:42;;;;;;;0.10;0.10;;;5.90;99.90;;;;;;5075209;28;20450;-83
2022/04/07 08:46:12;;;;;;;0.13;0.13;;;6.00;99.90;;;;;;5089212;28;20071;-83
2022/04/07 08:48:43;;;;;;;0.10;0.10;;;5.90;99.90;;;;;;5094337;28;20036;-83
2022/04/07 08:51:11;;;;;;;0.10;0.10;;;5.90;99.90;;;;;;5098052;28;20068;-85
2022/04/07 08:53:39;;;;;;;0.10;0.10;;;6.30;99.90;;;;;;5089225;28;20036;-83
2022/04/07 08:56:07;;;;;;;0.10;0.10;;;6.40;99.90;;;;;;5049104;28;20180;-83
2022/04/07 08:58:34;;;;;;;0.10;0.10;;;6.30;99.90;;;;;;5055721;28;20036;-83
2022/04/07 09:01:02;;;;;;;0.10;0.10;;;7.00;99.90;;;;;;5072086;28;20048;-82
2022/04/07 09:03:29;;;;;;;0.10;0.10;;;6.70;99.90;;;;;;5072656;28;20083;-84
2022/04/07 09:05:58;;;;;;;0.10;0.10;;;6.80;99.90;;;;;;5071571;28;20099;-85
2022/04/07 09:08:39;;;;;;;0.10;0.10;;;7.10;99.90;;;;;;5072763;28;20048;-83
2022/04/07 09:11:09;;;;;;;0.10;0.10;;;7.30;99.90;;;;;;5075159;28;20062;-84
2022/04/07 09:13:41;;;;;;;0.10;0.10;;;7.40;99.90;;;;;;5091742;28;20036;-83
2022/04/07 09:16:13;;;;;;;0.10;0.10;;;7.70;99.90;;;;;;5075507;28;20043;-81
2022/04/07 09:18:41;;;;;;;0.10;0.10;;;7.80;99.90;;;;;;5091429;28;20075;-82
2022/04/07 09:21:22;;;;;;;0.10;0.10;;;8.00;99.90;;;;;;5091569;28;20044;-83
2022/04/07 09:23:54;;;;;;;0.10;0.10;;;8.10;99.90;;;;;;5108431;28;20036;-83
2022/04/07 09:26:21;;;;;;;0.10;0.10;;;8.30;99.90;;;;;;5075470;28;20039;-84
2022/04/07 09:28:57;;;;;;;0.10;0.10;;;8.50;99.90;;;;;;5091866;28;20055;-84
2022/04/07 09:31:24;;;;;;;0.00;0.00;;;8.60;99.90;;;;;;5076555;28;20131;-85
2022/04/07 09:33:55;;;;;;;0.10;0.10;;;8.70;99.90;;;;;;5091460;28;20159;-82
2022/04/07 09:36:23;;;;;;;0.10;0.10;;;8.70;99.90;;;;;;5107801;28;20102;-82
2022/04/07 09:38:54;;;;;;;0.10;0.10;;;8.80;99.90;;;;;;5091373;28;20115;-85
2022/04/07 09:41:22;;;;;;;0.10;0.10;;;8.80;99.90;;;;;;5109645;28;20037;-85
2022/04/07 09:43:59;;;;;;;0.00;0.00;;;8.90;99.90;;;;;;5094695;28;20069;-84
2022/04/07 09:46:31;;;;;;;0.10;0.10;;;9.00;99.90;;;;;;5095005;28;20044;-85
2022/04/07 09:49:07;;;;;;;0.10;0.10;;;8.90;99.90;;;;;;5111469;28;20790;-82
2022/04/07 09:51:45;;;;;;;0.10;0.10;;;9.10;99.90;;;;;;5078843;28;20044;-85
2022/04/07 09:54:13;;;;;;;0.08;0.08;;;9.00;99.90;;;;;;5093605;28;20170;-82
2022/04/07 09:56:41;;;;;;;0.10;0.10;;;9.00;99.90;;;;;;5076363;28;20040;-84
2022/04/07 09:59:08;;;;;;;0.10;0.10;;;9.00;99.90;;;;;;5092186;28;20032;-84
2022/04/07 10:01:39;;;;;;;0.10;0.10;;;8.90;99.90;;;;;;5075005;28;20552;-85
2022/04/07 10:04:08;;;;;;;0.10;0.10;;;8.90;99.90;;;;;;5058782;28;20044;-86
2022/04/07 10:06:39;;;;;;;0.10;0.10;;;8.90;99.90;;;;;;5073741;28;20039;-86
2022/04/07 10:09:08;;;;;;;0.00;0.00;;;9.00;99.90;;;;;;5080090;28;20831;-83
2022/04/07 10:11:35;;;;;;;0.00;0.00;;;9.00;99.90;;;;;;5077457;28;20040;-87
2022/04/07 10:14:02;;;;;;;0.00;0.00;;;9.20;99.90;;;;;;5091086;28;20554;-83
2022/04/07 10:16:30;;;;;;;0.10;0.10;;;9.50;99.90;;;;;;5091221;28;20041;-84
2022/04/07 10:19:18;;;;;;;0.10;0.10;;;9.70;99.90;;;;;;5086192;28;20546;-84
2022/04/07 10:22:09;;;;;;;0.08;0.08;;;9.60;99.90;;;;;;5087646;28;20037;-83
2022/04/07 10:24:41;;;;;;;0.05;0.05;;;9.80;99.90;;;;;;5074817;28;20036;-84
2022/04/07 10:27:09;;;;;;;0.00;0.00;;;9.80;99.90;;;;;;5088849;28;20048;-85
2022/04/07 10:29:38;;;;;;;0.03;0.03;;;9.80;99.90;;;;;;5079967;28;20488;-84
2022/04/07 10:32:10;;;;;;;0.10;0.10;;;9.80;99.90;;;;;;5076702;28;20076;-86
2022/04/07 10:34:56;;;;;;;0.03;0.03;;;10.00;99.90;;;;;;5100030;28;20028;-86
2022/04/07 10:37:43;;;;;;;0.10;0.10;;;10.10;99.90;;;;;;5080339;28;20659;-86
2022/04/07 10:40:32;;;;;;;0.20;0.10;;;10.00;99.90;;;;;;5096562;28;20036;-86
2022/04/07 10:43:10;;;;;;;0.00;0.00;;;10.00;99.90;;;;;;5090224;28;20102;-83
2022/04/07 10:45:39;;;;;;;0.00;0.00;;;9.80;99.90;;;;;;5078966;28;20064;-83
2022/04/07 10:48:26;;;;;;;0.03;0.03;;;9.70;99.90;;;;;;5090753;28;20408;-86
2022/04/07 10:51:00;;;;;;;0.00;0.00;;;9.60;99.90;;;;;;5090201;28;20048;-85
2022/04/07 10:53:29;;;;;;;0.03;0.03;;;9.40;99.90;;;;;;5089952;28;20041;-85
2022/04/07 10:55:56;;;;;;;0.00;0.00;;;9.10;99.90;;;;;;5091754;28;20505;-84
2022/04/07 10:58:42;;;;;;;0.00;0.00;;;8.80;99.90;;;;;;5077050;28;20039;-85
2022/04/07 11:01:16;;;;;;;0.10;0.10;;;8.60;99.90;;;;;;5102103;28;20493;-85
2022/04/07 11:04:25;;;;;;;0.08;0.08;;;8.50;99.90;;;;;;5079093;28;20493;-83
2022/04/07 11:07:07;;;;;;;0.00;0.00;;;8.50;99.90;;;;;;5097418;28;20032;-83
2022/04/07 11:09:53;;;;;;;0.00;0.00;;;8.70;99.90;;;;;;5118922;28;20090;-85
2022/04/07 11:12:33;;;;;;;0.00;0.00;;;9.00;99.90;;;;;;5090244;28;20041;-85
2022/04/07 11:15:02;;;;;;;0.00;0.00;;;9.10;99.90;;;;;;5063973;28;20038;-83
2022/04/07 11:17:43;;;;;;;5.00;0.43;;;8.90;99.90;;;;;;5110365;28;20032;-83
2022/04/07 11:20:20;;;;;;;0.00;0.00;;;8.90;99.90;;;;;;5109827;28;20081;-83
2022/04/07 11:22:47;;;;;;;0.10;0.10;;;9.10;99.90;;;;;;5093243;28;20043;-85
2022/04/07 11:25:20;;;;;;;0.00;0.00;;;9.30;99.90;;;;;;5127237;28;20066;-85
2022/04/07 11:28:07;;;;;;;0.10;0.10;;;9.40;99.90;;;;;;5076840;28;20131;-84
2022/04/07 11:30:42;;;;;;;0.00;0.00;;;9.00;99.90;;;;;;5093493;28;20075;-83
2022/04/07 11:33:27;;;;;;;0.00;0.00;;;8.40;99.90;;;;;;5092735;28;20079;-85
2022/04/07 11:35:59;;;;;;;0.10;0.10;;;7.90;99.90;;;;;;5109312;28;20278;-85
2022/04/07 11:38:33;;;;;;;0.00;0.00;;;7.80;99.90;;;;;;5109665;28;20033;-85
2022/04/07 11:41:14;;;;;;;0.00;0.00;;;7.70;99.90;;;;;;5092853;28;20428;-85
2022/04/07 11:43:52;;;;;;;0.10;0.10;;;7.70;99.90;;;;;;5093184;28;20040;-83
2022/04/07 11:46:27;;;;;;;0.00;0.00;;;7.90;99.90;;;;;;5109091;28;20040;-86
2022/04/07 11:48:55;;;;;;;0.07;0.07;;;8.20;99.90;;;;;;5075596;28;20052;-83
2022/04/07 11:51:26;;;;;;;0.00;0.00;;;8.40;99.90;;;;;;5107581;28;20469;-85
2022/04/07 11:53:55;;;;;;;0.10;0.10;;;8.60;99.90;;;;;;5072534;28;20047;-85
2022/04/07 11:56:34;;;;;;;0.10;0.10;;;8.80;99.90;;;;;;5082705;28;21315;-85
2022/04/07 11:59:05;;;;;;;0.00;0.00;;;9.00;99.90;;;;;;5089309;28;20041;-83
2022/04/07 12:01:34;;;;;;;0.10;0.10;;;9.30;99.90;;;;;;5072773;28;20048;-83
2022/04/07 12:04:02;;;;;;;0.10;0.10;;;9.50;99.90;;;;;;5071864;28;20044;-85
2022/04/07 12:06:38;;;;;;;0.10;0.10;;;9.50;99.90;;;;;;5089311;28;20076;-82
2022/04/07 12:09:05;;;;;;;0.10;0.10;;;9.50;99.90;;;;;;5105227;28;20412;-82
2022/04/07 12:11:33;;;;;;;0.10;0.10;;;9.50;99.90;;;;;;5092488;28;20461;-83
2022/04/07 12:14:04;;;;;;;0.00;0.00;;;9.60;99.90;;;;;;5092623;28;20043;-82
2022/04/07 12:16:31;;;;;;;0.10;0.10;;;9.60;99.90;;;;;;5093013;28;20084;-87
2022/04/07 12:19:02;;;;;;;0.00;0.00;;;9.70;99.90;;;;;;5075700;28;20660;-87
2022/04/07 12:21:49;;;;;;;0.00;0.00;;;9.70;99.90;;;;;;5110002;28;20489;-87
2022/04/07 12:24:16;;;;;;;0.00;0.00;;;9.70;99.90;;;;;;5095614;28;20035;-88
2022/04/07 12:26:53;;;;;;;0.10;0.10;;;9.70;99.90;;;;;;5092898;28;20048;-83
2022/04/07 12:29:22;;;;;;;0.08;0.08;;;9.80;99.90;;;;;;5093870;28;20047;-88
2022/04/07 12:32:07;;;;;;;0.00;0.00;;;9.90;99.90;;;;;;5092348;28;20044;-83
2022/04/07 12:34:34;;;;;;;0.00;0.00;;;10.10;99.90;;;;;;5092492;28;20048;-87
2022/04/07 12:37:01;;;;;;;0.00;0.00;;;10.10;99.90;;;;;;5076243;28;20036;-86
2022/04/07 12:39:35;;;;;;;0.00;0.00;;;10.20;99.90;;;;;;5076286;28;20044;-84
2022/04/07 12:42:08;;;;;;;0.10;0.10;;;10.20;99.90;;;;;;5091689;28;20513;-83
2022/04/07 12:44:38;;;;;;;0.00;0.00;;;10.10;99.90;;;;;;5092570;28;20454;-83
2022/04/07 12:47:27;;;;;;;0.10;0.10;;;10.00;99.90;;;;;;5076104;28;20496;-83
2022/04/07 12:49:58;;;;;;;0.03;0.03;;;9.70;99.90;;;;;;5108681;28;20052;-83
2022/04/07 12:52:43;;;;;;;0.00;0.00;;;9.70;99.90;;;;;;5092705;28;20040;-87
2022/04/07 12:55:12;;;;;;;0.20;0.20;;;9.50;99.90;;;;;;5075760;28;20085;-86
2022/04/07 12:57:43;;;;;;;0.00;0.00;;;9.40;99.90;;;;;;5060192;28;20039;-84
2022/04/07 13:00:18;;;;;;;0.00;0.00;;;8.90;99.90;;;;;;5075977;28;20093;-83
2022/04/07 13:02:46;;;;;;;0.10;0.10;;;8.10;99.90;;;;;;5076011;28;20176;-83
2022/04/07 13:05:18;;;;;;;0.00;0.00;;;7.90;99.90;;;;;;5093013;28;20129;-86
2022/04/07 13:07:45;;;;;;;0.10;0.10;;;7.90;99.90;;;;;;5092965;28;20040;-87